Latest Weather Observations for Bedout Island

IDW60801

Issued at 9:33 pm WST Monday 25 July 2016 (issued every 30 minutes, with the page automatically refreshed every 10 minutes)

About weather observations | Map of weather stations | Latest weather observations for WA | Other Formats
Station Details ID: 004100 Name: BEDOUT ISLAND Lat: -19.59 Lon: 119.10 Height: 8.6 m
Data from the previous 72 hours. | See also: Recent months at Bedout Island
Date/Time
WST
Temp
°C
App
Temp
°C
Dew
Point
°C
Rel
Hum
%
Delta-T
°C
Wind Press
QNH
hPa
Press
MSL
hPa
Rain since
9am
mm
Dir  Spd
km/h
Gust
km/h
Spd
kts
Gust
kts
25/09:30pm 22.3 22.1 16.6 70 3.5 ESE 13 15 7 8 1016.9 - -
25/09:00pm 22.2 22.1 16.0 68 3.7 ESE 11 13 6 7 1016.8 1016.7 -
25/08:30pm 23.0 23.8 16.3 66 4.1 ESE 7 7 4 4 1016.6 - -
25/08:00pm 22.5 23.7 17.4 73 3.1 ESE 7 9 4 5 1016.4 - -
25/07:30pm 22.6 23.8 17.3 72 3.3 ESE 7 9 4 5 1016.3 - -
25/07:00pm 22.7 23.3 16.7 69 3.7 ESE 9 9 5 5 1016.0 - -
25/06:30pm 23.1 22.9 15.7 63 4.5 ESE 11 11 6 6 1015.8 - -
25/06:00pm 23.6 23.6 15.1 59 5.1 ESE 9 11 5 6 1015.5 1015.4 -
25/05:30pm 25.2 26.6 14.3 50 6.5 CALM 0 9 0 5 1015.2 - -
25/05:00pm 25.6 25.4 13.5 47 7.1 ESE 7 9 4 5 1015.0 - -
25/04:30pm 26.4 25.7 14.2 47 7.3 ESE 11 13 6 7 1014.8 - -
25/04:00pm 26.4 25.2 13.9 46 7.4 ESE 13 15 7 8 1014.7 - -
25/03:30pm 26.4 24.8 13.9 46 7.4 ESE 15 17 8 9 1014.7 - -
25/03:00pm 26.3 24.0 13.1 44 7.7 ESE 17 20 9 11 1014.7 1014.6 -
25/02:30pm 26.5 23.5 12.5 41 8.1 ESE 20 24 11 13 1014.8 - -
25/02:00pm 26.6 23.2 11.1 38 8.8 ESE 20 24 11 13 1015.1 - -
25/01:30pm 25.9 21.8 11.6 40 8.1 ESE 24 26 13 14 1015.4 - -
25/01:00pm 25.4 21.3 12.6 45 7.4 ESE 26 30 14 16 1015.8 - -
25/12:30pm 25.4 20.5 11.2 41 8.0 ESE 28 32 15 17 1016.3 - -
25/12:00pm 25.0 20.3 13.2 48 6.9 ESE 30 33 16 18 1016.9 1016.8 -
25/11:30am 24.6 19.3 12.5 46 7.0 ESE 32 37 17 20 1017.6 - -
25/11:00am 24.3 18.3 10.9 43 7.5 ESE 33 37 18 20 1017.9 - -
25/10:30am 24.1 17.7 10.7 43 7.4 ESE 35 41 19 22 1018.1 - -
25/10:00am 22.7 15.0 10.2 45 6.8 ESE 41 46 22 25 1018.0 - -
25/09:30am 22.7 14.8 9.5 43 7.1 ESE 41 46 22 25 1018.2 - -
25/09:00am 22.1 14.4 10.3 47 6.4 SE 41 46 22 25 1018.4 1018.3 -
25/08:30am 22.1 14.8 11.5 51 5.9 SE 41 46 22 25 1018.4 - -
25/08:00am 21.7 14.6 10.8 50 6.0 SE 39 44 21 24 1018.2 - -
25/07:30am 21.7 14.1 10.5 49 6.1 SE 41 46 22 25 1017.6 - -
25/07:00am 21.6 14.5 11.0 51 5.8 SE 39 44 21 24 1017.4 - -
25/06:30am 21.6 14.8 11.9 54 5.4 SE 39 44 21 24 1017.3 - -
25/06:00am 21.8 14.9 12.9 57 5.1 SE 41 46 22 25 1016.7 1016.6 -
25/05:30am 21.8 14.1 11.5 52 5.7 SE 43 50 23 27 1016.4 - -
25/05:00am 21.9 14.1 11.3 51 5.9 SE 43 48 23 26 1016.1 - -
25/04:30am 22.1 14.2 11.5 51 5.9 SE 44 50 24 27 1015.9 - -
25/04:00am 22.3 14.6 11.4 50 6.1 SE 43 50 23 27 1015.7 - -
25/03:30am 22.4 14.4 11.2 49 6.2 SE 44 50 24 27 1015.9 - -
25/03:00am 22.8 15.1 12.1 51 6.0 SE 44 50 24 27 1016.1 1016.0 -
25/02:30am 22.9 15.3 11.9 50 6.2 SE 43 48 23 26 1016.3 - -
25/02:00am 23.1 15.5 11.8 49 6.4 SE 43 50 23 27 1016.3 - -
25/01:30am 23.1 15.2 11.5 48 6.5 SE 44 52 24 28 1016.5 - -
25/01:00am 23.4 16.9 13.0 52 6.0 SE 39 44 21 24 1016.7 - -
25/12:30am 23.8 16.7 12.1 48 6.6 SSE 41 50 22 27 1016.9 - -
25/12:00am 23.8 17.6 12.8 50 6.3 SSE 37 41 20 22 1016.9 1016.8 -
 
Date/Time
WST
Temp
°C
App
Temp
°C
Dew
Point
°C
Rel
Hum
%
Delta-T
°C
Wind Press
QNH
hPa
Press
MSL
hPa
Rain since
9am
mm
Dir  Spd
km/h
Gust
km/h
Spd
kts
Gust
kts
24/11:30pm 24.0 18.0 13.2 50 6.3 SSE 37 43 20 23 1016.9 - -
24/11:00pm 24.1 17.8 13.6 52 6.1 SSE 39 44 21 24 1016.9 - -
24/10:30pm 23.9 18.6 14.3 55 5.7 SSE 35 41 19 22 1017.0 - -
24/10:00pm 24.0 18.6 13.8 53 6.0 SSE 35 41 19 22 1017.1 - -
24/09:30pm 24.0 18.4 13.2 50 6.3 SSE 35 43 19 23 1017.2 - -
24/09:00pm 23.9 19.8 14.9 57 5.4 SSE 30 35 16 19 1017.2 1017.1 -
24/08:30pm 24.3 19.9 15.2 57 5.5 SE 32 35 17 19 1017.2 - -
24/08:00pm 24.2 20.4 15.7 59 5.1 SE 30 35 16 19 1017.0 - -
24/07:30pm 24.3 20.3 16.3 61 4.9 ESE 32 37 17 20 1016.7 - -
24/07:00pm 24.1 21.2 16.1 61 4.9 ESE 26 30 14 16 1016.3 - -
24/06:30pm 23.6 21.8 15.4 60 4.9 ESE 19 20 10 11 1015.9 - -
24/06:00pm 23.8 22.8 15.6 60 4.9 ESE 15 17 8 9 1015.5 1015.4 -
24/05:30pm 24.1 22.9 15.1 57 5.4 ESE 15 17 8 9 1015.2 - -
24/05:00pm 24.5 22.9 15.1 55 5.6 ESE 17 19 9 10 1014.9 - -
24/04:30pm 24.6 22.5 14.7 54 5.9 ESE 19 20 10 11 1014.6 - -
24/04:00pm 24.4 22.3 15.1 56 5.6 ESE 20 24 11 13 1014.4 - -
24/03:30pm 24.6 22.4 15.0 55 5.7 ESE 20 22 11 12 1014.5 - -
24/03:00pm 24.4 21.7 13.6 51 6.3 ESE 20 22 11 12 1014.6 1014.5 -
24/02:30pm 25.3 23.2 14.7 51 6.3 ESE 19 22 10 12 1014.9 - -
24/02:00pm 25.8 22.7 13.3 46 7.3 ESE 22 26 12 14 1015.3 - -
24/01:30pm 25.1 22.0 13.3 48 6.9 ESE 22 28 12 15 1015.7 - -
24/01:00pm 26.1 21.8 13.2 44 7.5 ESE 28 33 15 18 1016.0 - -
24/12:30pm 24.7 20.1 13.6 50 6.5 ESE 30 37 16 20 1016.3 - -
24/12:00pm 24.7 19.2 12.6 47 7.0 ESE 33 39 18 21 1016.7 1016.6 -
24/11:30am 24.2 18.5 13.1 50 6.4 ESE 35 39 19 21 1017.1 - -
24/11:00am 24.5 18.8 14.3 53 6.0 ESE 37 41 20 22 1017.3 - -
24/10:30am 24.4 19.0 13.9 52 6.2 ESE 35 43 19 23 1017.8 - -
24/10:00am 23.8 16.8 12.4 48 6.5 ESE 41 46 22 25 1017.7 - -
24/09:30am 23.4 17.3 14.1 56 5.5 ESE 39 44 21 24 1017.9 - -
24/09:00am 22.6 15.5 13.4 56 5.3 ESE 43 46 23 25 1017.7 1017.6 -
24/08:30am 22.3 15.7 13.6 58 5.0 ESE 41 48 22 26 1017.4 - -
24/08:00am 22.1 14.7 13.2 57 5.1 ESE 44 52 24 28 1017.0 - -
24/07:30am 21.9 14.5 14.3 62 4.4 ESE 46 56 25 30 1016.7 - -
24/07:00am 21.9 15.4 14.0 61 4.6 ESE 41 46 22 25 1016.4 - -
24/06:30am 22.0 15.1 14.6 63 4.4 ESE 44 54 24 29 1016.0 - -
24/06:00am 22.3 15.9 14.2 60 4.7 SE 41 50 22 27 1015.6 1015.5 -
24/05:30am 22.5 14.7 14.1 59 4.9 SE 48 56 26 30 1015.4 - -
24/05:00am 22.7 16.3 14.3 59 4.9 SE 41 46 22 25 1015.2 - -
24/04:30am 23.1 17.8 15.4 62 4.6 SE 37 43 20 23 1014.9 - -
24/04:00am 23.4 17.0 15.5 61 4.7 SE 43 48 23 26 1014.7 - -
24/03:30am 23.7 17.4 14.7 57 5.3 SE 41 46 22 25 1014.5 - -
24/03:00am 23.9 18.4 14.6 56 5.5 ESE 37 44 20 24 1014.3 1014.2 -
24/02:30am 24.1 19.3 15.6 59 5.1 SE 35 44 19 24 1014.3 - -
24/02:00am 24.0 19.4 15.0 57 5.4 SE 33 39 18 21 1014.5 - -
24/01:30am 24.0 19.9 16.0 61 4.9 SE 32 39 17 21 1014.6 - -
24/01:00am 24.0 20.9 15.5 59 5.1 SE 26 33 14 18 1014.7 - -
24/12:30am 24.5 22.4 16.2 60 5.1 SE 22 26 12 14 1014.8 - -
24/12:00am 24.1 22.7 16.6 63 4.6 SE 19 20 10 11 1014.7 1014.6 -
 
Date/Time
WST
Temp
°C
App
Temp
°C
Dew
Point
°C
Rel
Hum
%
Delta-T
°C
Wind Press
QNH
hPa
Press
MSL
hPa
Rain since
9am
mm
Dir  Spd
km/h
Gust
km/h
Spd
kts
Gust
kts
23/11:30pm 23.8 22.8 18.0 70 3.6 SE 20 24 11 13 1014.8 - -
23/11:00pm 23.8 22.8 17.5 68 3.9 SE 19 22 10 12 1014.9 - -
23/10:30pm 23.5 23.2 18.2 72 3.3 SE 17 19 9 10 1014.9 - -
23/10:00pm 23.2 23.4 17.6 71 3.5 SE 13 15 7 8 1014.9 - -
23/09:30pm 22.8 23.3 17.5 72 3.3 SE 11 15 6 8 1014.7 - -
23/09:00pm 22.7 23.3 17.8 74 3.0 SE 11 13 6 7 1014.6 1014.5 -
23/08:30pm 22.5 23.4 18.3 77 2.6 SE 11 15 6 8 1014.5 - -
23/08:00pm 23.1 24.5 18.6 76 2.8 ESE 9 11 5 6 1014.4 - -
23/07:30pm 23.3 24.8 18.8 76 2.8 ESE 9 9 5 5 1014.1 - -
23/06:30pm 23.6 24.8 18.3 72 3.3 ESE 9 11 5 6 1013.5 - -
23/06:00pm 24.0 25.0 17.7 68 3.9 ESE 9 11 5 6 1013.4 1013.3 -
23/05:30pm 24.5 24.8 17.0 63 4.6 ESE 11 13 6 7 1013.1 - -
23/05:00pm 25.2 25.0 16.6 59 5.3 ESE 13 15 7 8 1012.9 - -
23/04:30pm 25.7 25.1 15.7 54 6.1 ESE 13 15 7 8 1012.9 - -
23/04:00pm 26.0 25.0 14.5 49 6.9 ESE 13 15 7 8 1013.2 - -
23/03:30pm 26.4 25.6 15.1 49 6.8 ESE 13 15 7 8 1013.4 - -
23/03:00pm 26.6 24.8 14.4 47 7.3 ESE 17 19 9 10 1013.4 1013.3 -
23/02:30pm 26.8 24.9 15.2 49 7.0 ESE 19 20 10 11 1013.6 - -
23/02:00pm 26.9 24.7 14.3 46 7.5 ESE 19 20 10 11 1014.2 - -
23/01:30pm 26.5 23.5 12.5 41 8.1 ESE 20 24 11 13 1014.7 - -
23/01:00pm 26.7 24.1 13.8 45 7.6 ESE 20 24 11 13 1015.2 - -
23/12:30pm 26.3 22.7 12.0 41 8.2 ESE 22 26 12 14 1015.7 - -
23/12:00pm 25.9 22.6 12.7 44 7.6 ESE 22 26 12 14 1016.2 1016.1 -
23/11:30am 25.1 20.9 12.3 45 7.3 ESE 26 30 14 16 1016.6 - -
23/11:00am 24.8 20.9 13.4 49 6.7 ESE 26 30 14 16 1017.0 - -
23/10:30am 24.1 19.4 12.1 47 6.8 ESE 28 33 15 18 1017.5 - -
23/10:00am 24.0 17.5 11.7 46 6.9 E 37 41 20 22 1017.4 - -
23/09:30am 23.8 17.6 12.8 50 6.3 ESE 37 41 20 22 1017.5 - -
23/09:10am 23.6 16.8 12.0 48 6.6 E 39 43 21 23 1017.3 - -
23/09:00am 23.5 19.1 12.8 51 6.1 SE 28 35 15 19 1017.5 1017.4 -
23/08:30am 22.9 18.4 12.5 52 5.9 SE 28 32 15 17 1017.3 - -
23/08:00am 22.6 17.3 12.5 53 5.7 SE 32 37 17 20 1017.0 - -
23/07:30am 22.4 16.4 12.1 52 5.8 SE 35 39 19 21 1016.9 - -
23/07:00am 22.0 17.1 12.5 54 5.4 SE 30 33 16 18 1016.4 - -
23/06:30am 21.6 17.9 14.0 62 4.4 SE 26 30 14 16 1016.1 - -
23/06:00am 21.9 18.1 13.5 59 4.8 SE 26 30 14 16 1015.8 1015.7 -
23/05:30am 22.1 17.8 13.2 57 5.1 SE 28 30 15 16 1015.3 - -
23/05:00am 22.5 17.6 12.4 52 5.7 SE 30 33 16 18 1014.9 - -
23/04:30am 22.8 17.6 12.7 53 5.8 SE 32 37 17 20 1014.8 - -
23/04:00am 23.1 18.1 13.3 54 5.7 SE 32 35 17 19 1014.8 - -
23/03:30am 23.5 18.2 13.1 52 6.0 SE 33 39 18 21 1014.8 - -
23/03:00am 23.7 17.5 11.4 46 6.9 SE 35 41 19 22 1014.8 1014.7 -
23/02:30am 23.8 19.1 13.1 51 6.2 SE 30 35 16 19 1014.8 - -
23/02:00am 23.9 19.3 13.4 51 6.1 SE 30 33 16 18 1014.7 - -
23/01:30am 24.0 20.3 15.0 57 5.4 SE 28 32 15 17 1014.9 - -
23/01:00am 24.8 19.7 13.7 50 6.5 SE 33 39 18 21 1014.8 - -
23/12:30am 24.6 21.3 16.1 59 5.2 SSE 28 32 15 17 1014.9 - -
23/12:00am 24.4 21.8 15.9 59 5.2 S 24 28 13 15 1014.8 1014.7 -
 
Date/Time
WST
Temp
°C
App
Temp
°C
Dew
Point
°C
Rel
Hum
%
Delta-T
°C
Wind Press
QNH
hPa
Press
MSL
hPa
Rain since
9am
mm
Dir  Spd
km/h
Gust
km/h
Spd
kts
Gust
kts
22/11:30pm 23.7 22.4 17.2 67 4.0 SW 20 26 11 14 1015.0 - -
22/11:00pm 24.0 22.6 18.0 69 3.8 SW 22 24 12 13 1015.2 - -
22/10:30pm 23.9 22.7 18.5 72 3.4 SW 22 26 12 14 1015.1 - -
22/10:00pm 23.6 21.8 18.7 74 3.1 SW 26 30 14 16 1015.2 - -

Other Formats:

Comma delimited format used in spreadsheet applications
http://www.bom.gov.au/fwo/IDW60801/IDW60801.94310.axf

JavaScript Object Notation format (JSON) in row-major order
http://www.bom.gov.au/fwo/IDW60801/IDW60801.94310.json